Wind-Chakra
| Name | Wind-Chakra |
|---|---|
| Muster | Wind Chakra |
| Art | Ninja-Action |
| Beschreibung | Die nächste Crouching Tiger, die du in diesem Zug spielst, erhält +3 POWER. WENN du in diesem Zug transzendiert hast, erhält sie stattdessen +5 POWER. Noch einmal |
| Edition | Flesh and Blood: Promo Cards #LGS265 |
| Tapete | |
| Bild |
Um Wind-Chakra
Wind-Chakra, Ninja-Action, entworfen von None Erstveröffentlichung in März 2025 bei der Bearbeitung Blitz Deck: Part the Mistveil - Zen und wurde genau in gedruckt 2 verschiedene Formen. Es wird derzeit zum niedrigsten Preis von verkauft € 0,09.
Die Windchakra-Karte wäre in einem Ninja-Deck, das sich auf den hockenden Tiger konzentriert, besonders nützlich, da sie die Kraft der Karte erheblich steigert, insbesondere wenn Sie diese Runde überschritten haben, was mächtige Angriffe und potenziell spielentscheidende Spielzüge ermöglicht. Während es andere Karten gibt, die den Schaden erhöhen oder ähnliche Effekte bieten können, wie zum Beispiel „Chirurgische Extraktion“ wegen ihrer Vielseitigkeit oder „Kunst des Krieges“ wegen ihrer umfassenderen taktischen Vorteile, machen Wind Chakras niedrige Kosten und die Fähigkeit, „Go Again“ zu gewähren, es zu einem starken Konkurrenten in einem schnellen Kampf. Temporeiche Ninja-Strategie. Daher sollte es in Decks zum Einsatz kommen, die darauf abzielen, die Wirkung von Crouching Tiger zu maximieren und die Fähigkeit des Ninja, Angriffe effektiv zu verketten, zu nutzen.
Wo zu kaufen
![]() | TCG Player | ![]() 8 uni.
| € 0,08 | Shop besuchen |
![]() | Ebay.com | Shop besuchen | ||
![]() | Printing proxies | $ 0.75 | Shop besuchen |
*Diese Website enthält Affiliate-Links, für die wir möglicherweise eine Vergütung erhalten
Eine Gruppe
Preisalarm ?
Benachrichtigen Sie mich, wenn der Preis hereinkommt
Geschichte der Preisentwicklung

Preisgeschichte
| Datum | Minimaler Preis | Durchschnittlicher Preis | Decks |
|---|---|---|---|
| 2024-10-19 | 0.00 EUR | 0.00 EUR | 0 |
| 2024-10-21 | 0.00 EUR | 0.00 EUR | 0 |
| 2024-10-28 | 0.00 EUR | 0.00 EUR | 0 |
| 2024-11-06 | 0.00 EUR | 0.00 EUR | 0 |
| 2024-11-11 | 0.00 EUR | 0.00 EUR | 0 |
| 2024-11-18 | 0.00 EUR | 0.00 EUR | 0 |
| 2024-11-25 | 0.00 EUR | 0.00 EUR | 0 |
| 2024-12-02 | 0.00 EUR | 0.00 EUR | 0 |
| 2024-12-09 | 0.00 EUR | 0.00 EUR | 0 |
| 2024-12-19 | 0.00 EUR | 0.00 EUR | 0 |
| 2024-12-23 | 0.00 EUR | 0.00 EUR | 0 |
| 2024-12-30 | 0.00 EUR | 0.00 EUR | 0 |
| 2025-01-01 | 0.00 EUR | 0.00 EUR | 0 |
| 2025-01-06 | 0.00 EUR | 0.00 EUR | 0 |
| 2025-01-13 | 0.00 EUR | 0.00 EUR | 0 |
| 2025-01-20 | 0.00 EUR | 0.00 EUR | 0 |
| 2025-01-27 | 0.00 EUR | 0.00 EUR | 0 |
| 2025-02-03 | 0.00 EUR | 0.00 EUR | 0 |
| 2025-02-10 | 0.00 EUR | 0.00 EUR | 0 |
| 2025-04-27 | 0.85 EUR | 0.85 EUR | 0 |
| 2025-04-28 | 0.84 EUR | 0.84 EUR | 0 |
| 2025-05-06 | 0.84 EUR | 0.84 EUR | 0 |
| 2025-05-12 | 0.47 EUR | 0.66 EUR | 0 |
| 2025-05-19 | 0.47 EUR | 0.66 EUR | 0 |
| 2025-05-28 | 0.47 EUR | 0.66 EUR | 0 |
| 2025-06-03 | 0.47 EUR | 0.66 EUR | 0 |
| 2025-06-10 | 0.46 EUR | 0.64 EUR | 0 |
| 2025-06-17 | 0.46 EUR | 0.64 EUR | 0 |
| 2025-06-23 | 0.46 EUR | 0.63 EUR | 0 |
| 2025-07-01 | 0.46 EUR | 0.61 EUR | 0 |
| 2025-07-08 | 0.45 EUR | 0.61 EUR | 0 |
| 2025-07-15 | 0.46 EUR | 0.62 EUR | 0 |
| 2025-07-22 | 0.47 EUR | 0.62 EUR | 0 |
| 2025-07-29 | 0.47 EUR | 0.59 EUR | 0 |
| 2025-08-05 | 0.46 EUR | 0.57 EUR | 0 |
| 2025-08-12 | 0.45 EUR | 0.56 EUR | 0 |
| 2025-08-18 | 0.45 EUR | 0.55 EUR | 0 |
| 2025-08-25 | 0.45 EUR | 0.55 EUR | 0 |
| 2025-09-02 | 0.45 EUR | 0.55 EUR | 0 |
| 2025-09-09 | 0.45 EUR | 0.55 EUR | 0 |
| 2025-09-15 | 0.45 EUR | 0.47 EUR | 0 |
| 2025-09-23 | 0.45 EUR | 0.47 EUR | 0 |
| 2025-09-29 | 0.45 EUR | 0.51 EUR | 0 |
| 2025-10-06 | 0.44 EUR | 0.49 EUR | 0 |
| 2025-10-13 | 0.46 EUR | 0.50 EUR | 0 |
| 2025-10-20 | 0.45 EUR | 0.50 EUR | 0 |
| 2025-10-27 | 0.45 EUR | 0.48 EUR | 0 |
| 2025-11-03 | 0.45 EUR | 0.47 EUR | 0 |
| 2025-11-10 | 0.44 EUR | 0.47 EUR | 0 |
| 2025-11-18 | 0.44 EUR | 0.47 EUR | 0 |
| 2025-11-24 | 0.45 EUR | 0.47 EUR | 0 |
| 2025-12-03 | 0.44 EUR | 0.45 EUR | 0 |
| 2025-12-08 | 0.45 EUR | 0.46 EUR | 0 |
| 2025-12-15 | 0.41 EUR | 0.44 EUR | 0 |
| 2025-12-22 | 0.42 EUR | 0.44 EUR | 0 |
| 2025-12-29 | 0.42 EUR | 0.44 EUR | 0 |
| 2026-01-01 | 0.44 EUR | 0.45 EUR | 0 |
| 2026-01-05 | 0.43 EUR | 0.45 EUR | 0 |
| 2026-01-13 | 0.43 EUR | 0.45 EUR | 0 |
| 2026-01-20 | 0.43 EUR | 0.44 EUR | 0 |
| 2026-01-26 | 0.42 EUR | 0.43 EUR | 0 |
| 2026-02-02 | 0.25 EUR | 0.35 EUR | 0 |
| 2026-02-09 | 0.13 EUR | 0.28 EUR | 0 |
| 2026-02-16 | 0.13 EUR | 0.28 EUR | 0 |
| 2026-02-23 | 0.23 EUR | 0.33 EUR | 0 |
| 2026-03-02 | 0.31 EUR | 0.37 EUR | 0 |
| 2026-03-10 | 0.28 EUR | 0.35 EUR | 0 |
| 2026-03-16 | 0.28 EUR | 0.35 EUR | 0 |
| 2026-04-02 | 0.28 EUR | 0.35 EUR | 0 |
| 2026-04-07 | 0.22 EUR | 0.22 EUR | 0 |
| 2026-04-14 | 0.23 EUR | 0.23 EUR | 0 |
| 2026-04-23 | 0.27 EUR | 0.27 EUR | 0 |
| 2026-04-30 | 0.40 EUR | 0.40 EUR | 0 |
| 2026-05-05 | 0.35 EUR | 0.35 EUR | 0 |
| 2026-05-14 | 0.21 EUR | 0.21 EUR | 0 |
| 2026-05-20 | 0.23 EUR | 0.23 EUR | 0 |
| 2026-05-25 | 0.30 EUR | 0.30 EUR | 0 |
| 2026-06-01 | 0.42 EUR | 0.42 EUR | 0 |
| 2026-06-08 | 0.36 EUR | 0.36 EUR | 0 |
| 2026-06-15 | 0.42 EUR | 0.42 EUR | 0 |
| 2026-06-23 | 0.43 EUR | 0.43 EUR | 0 |
| 2026-06-29 | 0.43 EUR | 0.43 EUR | 0 |
| 2026-07-06 | 0.43 EUR | 0.43 EUR | 0 |
| 2026-07-13 | 0.43 EUR | 0.43 EUR | 0 |
| 2026-07-20 | 0.43 EUR | 0.43 EUR | 0 |
| 2026-07-27 | 0.43 EUR | 0.43 EUR | 0 |
| 2026-08-03 | 0.43 EUR | 0.43 EUR | 0 |
| 2026-08-10 | 0.43 EUR | 0.43 EUR | 0 |
| 2026-08-17 | 0.31 EUR | 0.37 EUR | 0 |
| 2026-08-24 | 0.09 EUR | 0.09 EUR | 0 |
| 2026-09-01 | 0.09 EUR | 0.09 EUR | 0 |
Häufig gestellte Fragen zu Wind-Chakra
Welcher Kartentyp ist Wind-Chakra?
Wind-Chakra ist Ninja-Action Karte hinein Flesh and Blood FAB.
Welchen Effekt hat Wind-Chakra?
Die nächste Crouching Tiger, die du in diesem Zug spielst, erhält +3 POWER. WENN du in diesem Zug <strong>transzendiert</strong> hast, erhält sie stattdessen +5 POWER. <br><strong>Noch einmal</strong>
Was kostet Wind-Chakra?
Wind-Chakra beginnt derzeit um € 0,09. Sehen Sie sich die Live-Preise mehrerer Verkäufer oben im Abschnitt „Wo kaufen“ an.
Aus welchem Set stammt Wind-Chakra?
Wind-Chakra wurde erstmals im Set veröffentlicht Blitz Deck: Part the Mistveil - Zen.
Wie ist die Legalität von Wind-Chakra?
Die Legalität hängt vom Turnierformat ab – Wind-Chakra kann in einigen Formaten legal und in anderen verboten oder eingeschränkt sein. Die vollständige Aufschlüsselung nach Format finden Sie oben im Abschnitt „Rechtmäßigkeit“.
Welche Karten ähneln Wind-Chakra?
Buchstaben ähnlich Wind-Chakra enthalten Windchakra (3), Windchakra (1), Windchakra (2). Die vollständige Liste finden Sie oben im Abschnitt „Ähnliche Karten“.





Reaktionen
0
0 Kommentare
Sei der erste der kommentiert